sensor_id;sensor_type;location;lat;lon;timestamp;P1;durP1;ratioP1;P2;durP2;ratioP2
52798;SDS011;38667;42.872;74.622;2023-07-02T00:00:38;29.23;;;10.80;;
52798;SDS011;38667;42.872;74.622;2023-07-02T00:03:06;31.58;;;9.77;;
52798;SDS011;38667;42.872;74.622;2023-07-02T00:05:32;28.50;;;9.25;;
52798;SDS011;38667;42.872;74.622;2023-07-02T00:07:58;25.02;;;7.82;;
52798;SDS011;38667;42.872;74.622;2023-07-02T00:10:25;25.40;;;8.23;;
52798;SDS011;38667;42.872;74.622;2023-07-02T00:12:51;28.20;;;7.68;;
52798;SDS011;38667;42.872;74.622;2023-07-02T00:15:17;22.90;;;7.53;;
52798;SDS011;38667;42.872;74.622;2023-07-02T00:17:44;19.52;;;7.45;;
52798;SDS011;38667;42.872;74.622;2023-07-02T00:20:12;26.45;;;7.82;;
52798;SDS011;38667;42.872;74.622;2023-07-02T00:22:39;25.38;;;7.15;;
52798;SDS011;38667;42.872;74.622;2023-07-02T00:25:05;31.13;;;8.00;;
52798;SDS011;38667;42.872;74.622;2023-07-02T00:27:32;32.70;;;8.70;;
52798;SDS011;38667;42.872;74.622;2023-07-02T00:29:58;25.63;;;8.45;;
52798;SDS011;38667;42.872;74.622;2023-07-02T00:32:25;31.23;;;8.20;;
52798;SDS011;38667;42.872;74.622;2023-07-02T00:34:51;28.30;;;8.60;;
52798;SDS011;38667;42.872;74.622;2023-07-02T00:37:19;29.95;;;9.00;;
52798;SDS011;38667;42.872;74.622;2023-07-02T00:39:45;23.58;;;8.93;;
52798;SDS011;38667;42.872;74.622;2023-07-02T00:42:11;34.05;;;9.68;;
52798;SDS011;38667;42.872;74.622;2023-07-02T00:44:38;40.60;;;10.35;;
52798;SDS011;38667;42.872;74.622;2023-07-02T00:47:05;32.75;;;10.27;;
52798;SDS011;38667;42.872;74.622;2023-07-02T00:49:32;24.05;;;10.23;;
52798;SDS011;38667;42.872;74.622;2023-07-02T00:51:58;26.42;;;9.45;;
52798;SDS011;38667;42.872;74.622;2023-07-02T00:54:26;34.78;;;9.70;;
52798;SDS011;38667;42.872;74.622;2023-07-02T00:56:53;27.35;;;9.70;;
52798;SDS011;38667;42.872;74.622;2023-07-02T00:59:20;19.00;;;8.57;;
52798;SDS011;38667;42.872;74.622;2023-07-02T01:01:47;29.27;;;9.52;;
52798;SDS011;38667;42.872;74.622;2023-07-02T01:04:13;25.92;;;9.13;;
52798;SDS011;38667;42.872;74.622;2023-07-02T01:06:39;26.60;;;8.77;;
52798;SDS011;38667;42.872;74.622;2023-07-02T01:09:06;18.33;;;9.00;;
52798;SDS011;38667;42.872;74.622;2023-07-02T01:11:35;24.40;;;9.20;;
52798;SDS011;38667;42.872;74.622;2023-07-02T01:14:05;18.38;;;8.77;;
52798;SDS011;38667;42.872;74.622;2023-07-02T01:16:36;15.93;;;8.48;;
52798;SDS011;38667;42.872;74.622;2023-07-02T01:19:04;28.83;;;8.25;;
52798;SDS011;38667;42.872;74.622;2023-07-02T01:21:37;23.50;;;7.88;;
52798;SDS011;38667;42.872;74.622;2023-07-02T01:24:04;18.63;;;6.38;;
52798;SDS011;38667;42.872;74.622;2023-07-02T01:26:31;17.95;;;6.35;;
52798;SDS011;38667;42.872;74.622;2023-07-02T01:28:58;15.20;;;5.70;;
52798;SDS011;38667;42.872;74.622;2023-07-02T01:31:24;13.18;;;4.82;;
52798;SDS011;38667;42.872;74.622;2023-07-02T01:33:51;12.93;;;5.68;;
52798;SDS011;38667;42.872;74.622;2023-07-02T01:36:17;13.43;;;4.63;;
52798;SDS011;38667;42.872;74.622;2023-07-02T01:38:45;13.68;;;4.70;;
52798;SDS011;38667;42.872;74.622;2023-07-02T01:41:11;11.18;;;4.85;;
52798;SDS011;38667;42.872;74.622;2023-07-02T01:43:38;7.03;;;3.75;;
52798;SDS011;38667;42.872;74.622;2023-07-02T01:46:04;8.05;;;3.80;;
52798;SDS011;38667;42.872;74.622;2023-07-02T01:48:30;6.90;;;3.58;;
52798;SDS011;38667;42.872;74.622;2023-07-02T01:50:57;8.82;;;3.70;;
52798;SDS011;38667;42.872;74.622;2023-07-02T01:53:23;13.02;;;4.53;;
52798;SDS011;38667;42.872;74.622;2023-07-02T01:55:51;17.75;;;4.68;;
52798;SDS011;38667;42.872;74.622;2023-07-02T01:58:17;12.27;;;4.60;;
52798;SDS011;38667;42.872;74.622;2023-07-02T02:00:43;15.68;;;4.85;;
52798;SDS011;38667;42.872;74.622;2023-07-02T02:03:10;12.18;;;4.00;;
52798;SDS011;38667;42.872;74.622;2023-07-02T02:05:36;7.80;;;4.85;;
52798;SDS011;38667;42.872;74.622;2023-07-02T02:08:03;15.13;;;4.68;;
52798;SDS011;38667;42.872;74.622;2023-07-02T02:10:29;13.32;;;4.38;;
52798;SDS011;38667;42.872;74.622;2023-07-02T02:12:57;7.35;;;3.95;;
52798;SDS011;38667;42.872;74.622;2023-07-02T02:15:23;9.73;;;3.78;;
52798;SDS011;38667;42.872;74.622;2023-07-02T02:17:49;8.27;;;4.68;;
52798;SDS011;38667;42.872;74.622;2023-07-02T02:20:16;10.60;;;4.20;;
52798;SDS011;38667;42.872;74.622;2023-07-02T02:22:42;10.65;;;4.13;;
52798;SDS011;38667;42.872;74.622;2023-07-02T02:25:09;7.43;;;3.15;;
52798;SDS011;38667;42.872;74.622;2023-07-02T02:27:35;9.60;;;3.88;;
52798;SDS011;38667;42.872;74.622;2023-07-02T02:30:03;9.88;;;4.18;;
52798;SDS011;38667;42.872;74.622;2023-07-02T02:32:32;7.72;;;3.60;;
52798;SDS011;38667;42.872;74.622;2023-07-02T02:34:58;5.05;;;3.33;;
52798;SDS011;38667;42.872;74.622;2023-07-02T02:37:24;7.25;;;2.88;;
52798;SDS011;38667;42.872;74.622;2023-07-02T02:39:51;5.85;;;3.17;;
52798;SDS011;38667;42.872;74.622;2023-07-02T02:42:17;7.40;;;3.50;;
52798;SDS011;38667;42.872;74.622;2023-07-02T02:44:43;6.05;;;2.80;;
52798;SDS011;38667;42.872;74.622;2023-07-02T02:47:11;8.45;;;3.22;;
52798;SDS011;38667;42.872;74.622;2023-07-02T02:49:38;6.72;;;3.17;;
52798;SDS011;38667;42.872;74.622;2023-07-02T02:52:04;8.93;;;3.67;;
52798;SDS011;38667;42.872;74.622;2023-07-02T02:54:31;10.10;;;3.75;;
52798;SDS011;38667;42.872;74.622;2023-07-02T02:56:57;6.15;;;3.28;;
52798;SDS011;38667;42.872;74.622;2023-07-02T02:59:23;5.57;;;3.10;;
52798;SDS011;38667;42.872;74.622;2023-07-02T03:01:50;8.32;;;3.25;;
52798;SDS011;38667;42.872;74.622;2023-07-02T03:04:18;7.18;;;3.95;;
52798;SDS011;38667;42.872;74.622;2023-07-02T03:06:44;7.97;;;3.70;;
52798;SDS011;38667;42.872;74.622;2023-07-02T03:09:10;6.15;;;4.05;;
52798;SDS011;38667;42.872;74.622;2023-07-02T03:11:37;8.07;;;3.90;;
52798;SDS011;38667;42.872;74.622;2023-07-02T03:14:03;8.05;;;3.65;;
52798;SDS011;38667;42.872;74.622;2023-07-02T03:16:30;7.25;;;3.70;;
52798;SDS011;38667;42.872;74.622;2023-07-02T03:18:56;5.80;;;3.90;;
52798;SDS011;38667;42.872;74.622;2023-07-02T03:21:24;7.97;;;3.80;;
52798;SDS011;38667;42.872;74.622;2023-07-02T03:23:50;7.05;;;3.97;;
52798;SDS011;38667;42.872;74.622;2023-07-02T03:26:17;9.93;;;4.07;;
52798;SDS011;38667;42.872;74.622;2023-07-02T03:28:43;8.10;;;4.18;;
52798;SDS011;38667;42.872;74.622;2023-07-02T03:31:09;6.35;;;3.92;;
52798;SDS011;38667;42.872;74.622;2023-07-02T03:33:35;7.47;;;3.88;;
52798;SDS011;38667;42.872;74.622;2023-07-02T03:36:02;7.30;;;4.20;;
52798;SDS011;38667;42.872;74.622;2023-07-02T03:38:30;8.75;;;3.72;;
52798;SDS011;38667;42.872;74.622;2023-07-02T03:40:56;5.93;;;3.25;;
52798;SDS011;38667;42.872;74.622;2023-07-02T03:43:23;8.57;;;3.90;;
52798;SDS011;38667;42.872;74.622;2023-07-02T03:45:49;5.20;;;3.67;;
52798;SDS011;38667;42.872;74.622;2023-07-02T03:48:16;12.10;;;4.75;;
52798;SDS011;38667;42.872;74.622;2023-07-02T03:50:42;8.95;;;6.25;;
52798;SDS011;38667;42.872;74.622;2023-07-02T03:53:09;12.20;;;5.55;;
52798;SDS011;38667;42.872;74.622;2023-07-02T03:55:37;12.82;;;4.63;;
52798;SDS011;38667;42.872;74.622;2023-07-02T03:58:03;9.98;;;6.20;;
52798;SDS011;38667;42.872;74.622;2023-07-02T04:00:29;13.13;;;8.02;;
52798;SDS011;38667;42.872;74.622;2023-07-02T04:02:56;15.13;;;7.68;;
52798;SDS011;38667;42.872;74.622;2023-07-02T04:05:22;14.88;;;8.23;;
52798;SDS011;38667;42.872;74.622;2023-07-02T04:07:48;13.70;;;5.82;;
52798;SDS011;38667;42.872;74.622;2023-07-02T04:10:15;10.35;;;6.03;;
52798;SDS011;38667;42.872;74.622;2023-07-02T04:12:43;11.80;;;5.65;;
52798;SDS011;38667;42.872;74.622;2023-07-02T04:15:09;13.80;;;4.95;;
52798;SDS011;38667;42.872;74.622;2023-07-02T04:17:36;6.57;;;4.18;;
52798;SDS011;38667;42.872;74.622;2023-07-02T04:20:02;8.73;;;4.72;;
52798;SDS011;38667;42.872;74.622;2023-07-02T04:22:29;6.45;;;4.70;;
52798;SDS011;38667;42.872;74.622;2023-07-02T04:24:56;14.65;;;4.80;;
52798;SDS011;38667;42.872;74.622;2023-07-02T04:27:22;8.38;;;4.00;;
52798;SDS011;38667;42.872;74.622;2023-07-02T04:29:50;8.27;;;4.28;;
52798;SDS011;38667;42.872;74.622;2023-07-02T04:32:16;10.90;;;4.50;;
52798;SDS011;38667;42.872;74.622;2023-07-02T04:34:42;11.07;;;4.78;;
52798;SDS011;38667;42.872;74.622;2023-07-02T04:37:09;12.70;;;5.32;;
52798;SDS011;38667;42.872;74.622;2023-07-02T04:39:35;23.13;;;11.65;;
52798;SDS011;38667;42.872;74.622;2023-07-02T04:42:01;21.33;;;9.50;;
52798;SDS011;38667;42.872;74.622;2023-07-02T04:44:28;23.80;;;8.43;;
52798;SDS011;38667;42.872;74.622;2023-07-02T04:46:56;29.85;;;8.50;;
52798;SDS011;38667;42.872;74.622;2023-07-02T04:49:23;29.02;;;8.43;;
52798;SDS011;38667;42.872;74.622;2023-07-02T04:51:49;24.02;;;8.98;;
52798;SDS011;38667;42.872;74.622;2023-07-02T04:54:16;22.33;;;8.07;;
52798;SDS011;38667;42.872;74.622;2023-07-02T04:56:42;21.90;;;7.43;;
52798;SDS011;38667;42.872;74.622;2023-07-02T04:59:08;20.08;;;8.05;;
52798;SDS011;38667;42.872;74.622;2023-07-02T05:01:34;18.40;;;6.70;;
52798;SDS011;38667;42.872;74.622;2023-07-02T05:04:02;23.92;;;6.53;;
52798;SDS011;38667;42.872;74.622;2023-07-02T05:06:30;15.60;;;6.07;;
52798;SDS011;38667;42.872;74.622;2023-07-02T05:08:57;16.83;;;6.55;;
52798;SDS011;38667;42.872;74.622;2023-07-02T05:11:23;18.55;;;6.60;;
52798;SDS011;38667;42.872;74.622;2023-07-02T05:13:49;16.30;;;6.50;;
52798;SDS011;38667;42.872;74.622;2023-07-02T05:16:16;16.15;;;5.88;;
52798;SDS011;38667;42.872;74.622;2023-07-02T05:18:42;20.67;;;5.80;;
52798;SDS011;38667;42.872;74.622;2023-07-02T05:21:10;13.45;;;5.55;;
52798;SDS011;38667;42.872;74.622;2023-07-02T05:23:37;14.45;;;5.30;;
52798;SDS011;38667;42.872;74.622;2023-07-02T05:26:03;15.60;;;6.03;;
52798;SDS011;38667;42.872;74.622;2023-07-02T05:28:29;20.48;;;6.43;;
52798;SDS011;38667;42.872;74.622;2023-07-02T05:30:56;14.38;;;5.97;;
52798;SDS011;38667;42.872;74.622;2023-07-02T05:33:22;20.88;;;5.65;;
52798;SDS011;38667;42.872;74.622;2023-07-02T05:35:48;32.33;;;7.43;;
52798;SDS011;38667;42.872;74.622;2023-07-02T05:38:17;19.95;;;6.10;;
52798;SDS011;38667;42.872;74.622;2023-07-02T05:40:43;17.65;;;6.28;;
52798;SDS011;38667;42.872;74.622;2023-07-02T05:43:10;13.23;;;5.75;;
52798;SDS011;38667;42.872;74.622;2023-07-02T05:45:36;12.65;;;4.45;;
52798;SDS011;38667;42.872;74.622;2023-07-02T05:48:03;14.77;;;5.47;;
52798;SDS011;38667;42.872;74.622;2023-07-02T05:50:30;13.27;;;4.78;;
52798;SDS011;38667;42.872;74.622;2023-07-02T05:52:56;9.90;;;4.43;;
52798;SDS011;38667;42.872;74.622;2023-07-02T05:55:24;11.40;;;4.07;;
52798;SDS011;38667;42.872;74.622;2023-07-02T05:57:50;6.75;;;3.60;;
52798;SDS011;38667;42.872;74.622;2023-07-02T06:00:17;10.32;;;4.80;;
52798;SDS011;38667;42.872;74.622;2023-07-02T06:02:45;12.13;;;4.15;;
52798;SDS011;38667;42.872;74.622;2023-07-02T06:05:11;6.47;;;3.75;;
52798;SDS011;38667;42.872;74.622;2023-07-02T06:07:38;11.23;;;4.35;;
52798;SDS011;38667;42.872;74.622;2023-07-02T06:10:04;9.73;;;4.35;;
52798;SDS011;38667;42.872;74.622;2023-07-02T06:12:33;11.35;;;4.25;;
52798;SDS011;38667;42.872;74.622;2023-07-02T06:14:59;12.45;;;4.57;;
52798;SDS011;38667;42.872;74.622;2023-07-02T06:17:25;11.98;;;4.43;;
52798;SDS011;38667;42.872;74.622;2023-07-02T06:19:52;14.23;;;4.03;;
52798;SDS011;38667;42.872;74.622;2023-07-02T06:22:18;10.45;;;3.80;;
52798;SDS011;38667;42.872;74.622;2023-07-02T06:24:44;8.50;;;4.32;;
52798;SDS011;38667;42.872;74.622;2023-07-02T06:27:11;8.35;;;4.00;;
52798;SDS011;38667;42.872;74.622;2023-07-02T06:29:39;7.75;;;3.60;;
52798;SDS011;38667;42.872;74.622;2023-07-02T06:32:05;7.15;;;3.92;;
52798;SDS011;38667;42.872;74.622;2023-07-02T06:34:32;9.90;;;3.85;;
52798;SDS011;38667;42.872;74.622;2023-07-02T06:36:58;6.50;;;4.20;;
52798;SDS011;38667;42.872;74.622;2023-07-02T06:39:25;13.27;;;4.93;;
52798;SDS011;38667;42.872;74.622;2023-07-02T06:41:51;7.85;;;4.18;;
52798;SDS011;38667;42.872;74.622;2023-07-02T06:44:17;7.22;;;4.00;;
52798;SDS011;38667;42.872;74.622;2023-07-02T06:46:47;7.72;;;3.85;;
52798;SDS011;38667;42.872;74.622;2023-07-02T06:49:13;4.68;;;3.60;;
52798;SDS011;38667;42.872;74.622;2023-07-02T06:51:39;7.00;;;3.60;;
52798;SDS011;38667;42.872;74.622;2023-07-02T06:54:06;8.18;;;4.00;;
52798;SDS011;38667;42.872;74.622;2023-07-02T06:56:32;5.32;;;3.58;;
52798;SDS011;38667;42.872;74.622;2023-07-02T06:59:00;9.02;;;4.22;;
52798;SDS011;38667;42.872;74.622;2023-07-02T07:01:26;6.38;;;3.35;;
52798;SDS011;38667;42.872;74.622;2023-07-02T07:03:54;5.10;;;3.00;;
52798;SDS011;38667;42.872;74.622;2023-07-02T07:06:20;6.18;;;3.15;;
52798;SDS011;38667;42.872;74.622;2023-07-02T07:08:47;4.88;;;3.30;;
52798;SDS011;38667;42.872;74.622;2023-07-02T07:11:13;5.05;;;2.92;;
52798;SDS011;38667;42.872;74.622;2023-07-02T07:13:39;8.60;;;3.50;;
52798;SDS011;38667;42.872;74.622;2023-07-02T07:16:06;5.97;;;3.20;;
52798;SDS011;38667;42.872;74.622;2023-07-02T07:18:32;4.15;;;2.85;;
52798;SDS011;38667;42.872;74.622;2023-07-02T07:21:00;4.45;;;3.30;;
52798;SDS011;38667;42.872;74.622;2023-07-02T07:23:26;5.45;;;3.05;;
52798;SDS011;38667;42.872;74.622;2023-07-02T07:25:53;5.22;;;2.42;;
52798;SDS011;38667;42.872;74.622;2023-07-02T07:28:19;4.45;;;3.35;;
52798;SDS011;38667;42.872;74.622;2023-07-02T07:30:45;4.25;;;2.92;;
52798;SDS011;38667;42.872;74.622;2023-07-02T07:33:12;4.75;;;3.13;;
52798;SDS011;38667;42.872;74.622;2023-07-02T07:35:38;8.88;;;3.53;;
52798;SDS011;38667;42.872;74.622;2023-07-02T07:38:06;4.00;;;2.80;;
52798;SDS011;38667;42.872;74.622;2023-07-02T07:40:32;9.73;;;3.42;;
52798;SDS011;38667;42.872;74.622;2023-07-02T07:42:59;7.88;;;2.95;;
52798;SDS011;38667;42.872;74.622;2023-07-02T07:45:25;6.30;;;3.38;;
52798;SDS011;38667;42.872;74.622;2023-07-02T07:47:52;7.55;;;3.60;;
52798;SDS011;38667;42.872;74.622;2023-07-02T07:50:18;8.48;;;3.03;;
52798;SDS011;38667;42.872;74.622;2023-07-02T07:52:44;4.97;;;2.95;;
52798;SDS011;38667;42.872;74.622;2023-07-02T07:55:12;12.30;;;3.08;;
52798;SDS011;38667;42.872;74.622;2023-07-02T07:57:38;6.90;;;2.90;;
52798;SDS011;38667;42.872;74.622;2023-07-02T08:00:05;4.53;;;3.00;;
52798;SDS011;38667;42.872;74.622;2023-07-02T08:02:32;6.63;;;3.30;;
52798;SDS011;38667;42.872;74.622;2023-07-02T08:04:58;4.18;;;3.35;;
52798;SDS011;38667;42.872;74.622;2023-07-02T08:07:25;5.07;;;3.20;;
52798;SDS011;38667;42.872;74.622;2023-07-02T08:09:51;7.15;;;2.90;;
52798;SDS011;38667;42.872;74.622;2023-07-02T08:12:19;10.93;;;3.63;;
52798;SDS011;38667;42.872;74.622;2023-07-02T08:14:45;3.60;;;3.20;;
52798;SDS011;38667;42.872;74.622;2023-07-02T08:17:12;6.28;;;3.55;;
52798;SDS011;38667;42.872;74.622;2023-07-02T08:19:38;5.70;;;2.85;;
52798;SDS011;38667;42.872;74.622;2023-07-02T08:22:05;4.47;;;2.95;;
52798;SDS011;38667;42.872;74.622;2023-07-02T08:24:31;9.05;;;3.80;;
52798;SDS011;38667;42.872;74.622;2023-07-02T08:26:57;4.97;;;3.33;;
52798;SDS011;38667;42.872;74.622;2023-07-02T08:29:25;6.53;;;3.90;;
52798;SDS011;38667;42.872;74.622;2023-07-02T08:31:52;8.27;;;3.35;;
52798;SDS011;38667;42.872;74.622;2023-07-02T08:34:18;7.95;;;3.50;;
52798;SDS011;38667;42.872;74.622;2023-07-02T08:36:44;4.50;;;3.30;;
52798;SDS011;38667;42.872;74.622;2023-07-02T08:39:11;6.53;;;3.03;;
52798;SDS011;38667;42.872;74.622;2023-07-02T08:41:43;6.80;;;3.35;;
52798;SDS011;38667;42.872;74.622;2023-07-02T08:44:11;11.45;;;3.35;;
52798;SDS011;38667;42.872;74.622;2023-07-02T08:46:39;7.03;;;3.13;;
52798;SDS011;38667;42.872;74.622;2023-07-02T08:49:06;6.35;;;2.70;;
52798;SDS011;38667;42.872;74.622;2023-07-02T08:51:32;11.27;;;4.95;;
52798;SDS011;38667;42.872;74.622;2023-07-02T08:53:59;6.28;;;3.80;;
52798;SDS011;38667;42.872;74.622;2023-07-02T08:56:25;5.82;;;3.38;;
52798;SDS011;38667;42.872;74.622;2023-07-02T08:58:51;9.68;;;3.63;;
52798;SDS011;38667;42.872;74.622;2023-07-02T09:01:19;9.50;;;3.60;;
52798;SDS011;38667;42.872;74.622;2023-07-02T09:03:47;8.45;;;3.30;;
52798;SDS011;38667;42.872;74.622;2023-07-02T09:06:16;5.53;;;3.13;;
52798;SDS011;38667;42.872;74.622;2023-07-02T09:08:43;6.63;;;3.13;;
52798;SDS011;38667;42.872;74.622;2023-07-02T09:11:10;17.05;;;3.70;;
52798;SDS011;38667;42.872;74.622;2023-07-02T09:13:46;6.53;;;3.05;;
52798;SDS011;38667;42.872;74.622;2023-07-02T09:16:20;8.55;;;3.30;;
52798;SDS011;38667;42.872;74.622;2023-07-02T09:19:02;7.55;;;2.70;;
52798;SDS011;38667;42.872;74.622;2023-07-02T09:21:37;6.63;;;2.85;;
52798;SDS011;38667;42.872;74.622;2023-07-02T09:24:11;5.15;;;3.13;;
52798;SDS011;38667;42.872;74.622;2023-07-02T09:26:41;3.92;;;3.08;;
52798;SDS011;38667;42.872;74.622;2023-07-02T09:29:08;7.07;;;3.22;;
52798;SDS011;38667;42.872;74.622;2023-07-02T09:31:42;7.43;;;3.88;;
52798;SDS011;38667;42.872;74.622;2023-07-02T09:34:11;9.65;;;3.38;;
52798;SDS011;38667;42.872;74.622;2023-07-02T09:36:37;8.13;;;3.28;;
52798;SDS011;38667;42.872;74.622;2023-07-02T09:39:04;6.03;;;3.35;;
52798;SDS011;38667;42.872;74.622;2023-07-02T09:41:30;3.75;;;2.80;;
52798;SDS011;38667;42.872;74.622;2023-07-02T09:43:57;8.23;;;3.53;;
52798;SDS011;38667;42.872;74.622;2023-07-02T09:46:25;5.38;;;3.25;;
52798;SDS011;38667;42.872;74.622;2023-07-02T09:48:52;4.35;;;3.08;;
52798;SDS011;38667;42.872;74.622;2023-07-02T09:51:21;4.82;;;3.33;;
52798;SDS011;38667;42.872;74.622;2023-07-02T09:53:48;4.30;;;2.88;;
52798;SDS011;38667;42.872;74.622;2023-07-02T09:56:15;5.97;;;3.35;;
52798;SDS011;38667;42.872;74.622;2023-07-02T09:58:43;4.55;;;3.15;;
52798;SDS011;38667;42.872;74.622;2023-07-02T10:01:10;3.28;;;2.55;;
52798;SDS011;38667;42.872;74.622;2023-07-02T10:03:36;3.35;;;2.47;;
52798;SDS011;38667;42.872;74.622;2023-07-02T10:06:03;4.85;;;2.72;;
52798;SDS011;38667;42.872;74.622;2023-07-02T10:08:32;3.30;;;2.90;;
52798;SDS011;38667;42.872;74.622;2023-07-02T10:11:08;5.00;;;4.30;;
52798;SDS011;38667;42.872;74.622;2023-07-02T10:13:35;3.95;;;2.63;;
52798;SDS011;38667;42.872;74.622;2023-07-02T10:16:02;8.18;;;5.30;;
52798;SDS011;38667;42.872;74.622;2023-07-02T10:18:29;4.07;;;2.60;;
52798;SDS011;38667;42.872;74.622;2023-07-02T10:20:55;5.85;;;3.72;;
52798;SDS011;38667;42.872;74.622;2023-07-02T10:23:33;7.75;;;3.70;;
52798;SDS011;38667;42.872;74.622;2023-07-02T10:26:09;9.07;;;5.35;;
52798;SDS011;38667;42.872;74.622;2023-07-02T10:28:36;5.15;;;2.60;;
52798;SDS011;38667;42.872;74.622;2023-07-02T10:31:02;4.15;;;2.58;;
52798;SDS011;38667;42.872;74.622;2023-07-02T10:33:28;3.40;;;2.50;;
52798;SDS011;38667;42.872;74.622;2023-07-02T10:35:55;3.05;;;2.33;;
52798;SDS011;38667;42.872;74.622;2023-07-02T10:38:22;4.57;;;2.40;;
52798;SDS011;38667;42.872;74.622;2023-07-02T10:40:55;3.05;;;2.00;;
52798;SDS011;38667;42.872;74.622;2023-07-02T10:43:24;8.27;;;2.53;;
52798;SDS011;38667;42.872;74.622;2023-07-02T10:45:51;5.05;;;2.50;;
52798;SDS011;38667;42.872;74.622;2023-07-02T10:48:17;2.80;;;1.92;;
52798;SDS011;38667;42.872;74.622;2023-07-02T10:50:43;5.32;;;2.35;;
52798;SDS011;38667;42.872;74.622;2023-07-02T10:53:14;3.40;;;2.30;;
52798;SDS011;38667;42.872;74.622;2023-07-02T10:55:40;3.00;;;2.20;;
52798;SDS011;38667;42.872;74.622;2023-07-02T10:58:09;4.22;;;2.22;;
52798;SDS011;38667;42.872;74.622;2023-07-02T11:00:45;3.70;;;2.03;;
52798;SDS011;38667;42.872;74.622;2023-07-02T11:03:18;7.45;;;2.85;;
52798;SDS011;38667;42.872;74.622;2023-07-02T11:05:45;6.28;;;2.50;;
52798;SDS011;38667;42.872;74.622;2023-07-02T11:08:13;4.40;;;2.40;;
52798;SDS011;38667;42.872;74.622;2023-07-02T11:10:39;3.08;;;2.55;;
52798;SDS011;38667;42.872;74.622;2023-07-02T11:13:14;8.80;;;2.20;;
52798;SDS011;38667;42.872;74.622;2023-07-02T11:15:41;5.55;;;2.10;;
52798;SDS011;38667;42.872;74.622;2023-07-02T11:18:10;8.05;;;2.10;;
52798;SDS011;38667;42.872;74.622;2023-07-02T11:20:37;6.45;;;2.80;;
52798;SDS011;38667;42.872;74.622;2023-07-02T11:23:04;6.78;;;2.78;;
52798;SDS011;38667;42.872;74.622;2023-07-02T11:25:41;7.00;;;2.72;;
52798;SDS011;38667;42.872;74.622;2023-07-02T11:28:08;4.57;;;2.53;;
52798;SDS011;38667;42.872;74.622;2023-07-02T11:30:44;5.65;;;2.60;;
52798;SDS011;38667;42.872;74.622;2023-07-02T11:33:10;5.82;;;2.92;;
52798;SDS011;38667;42.872;74.622;2023-07-02T11:35:37;8.88;;;2.92;;
52798;SDS011;38667;42.872;74.622;2023-07-02T11:38:03;4.85;;;2.30;;
52798;SDS011;38667;42.872;74.622;2023-07-02T11:40:30;3.38;;;2.30;;
52798;SDS011;38667;42.872;74.622;2023-07-02T11:42:56;3.85;;;2.70;;
52798;SDS011;38667;42.872;74.622;2023-07-02T11:45:22;5.03;;;2.58;;
52798;SDS011;38667;42.872;74.622;2023-07-02T11:47:51;8.90;;;4.25;;
52798;SDS011;38667;42.872;74.622;2023-07-02T11:50:17;7.95;;;4.90;;
52798;SDS011;38667;42.872;74.622;2023-07-02T11:52:44;6.95;;;3.83;;
52798;SDS011;38667;42.872;74.622;2023-07-02T11:55:10;5.88;;;2.88;;
52798;SDS011;38667;42.872;74.622;2023-07-02T11:57:36;5.05;;;2.90;;
52798;SDS011;38667;42.872;74.622;2023-07-02T12:00:03;6.82;;;2.22;;
52798;SDS011;38667;42.872;74.622;2023-07-02T12:02:30;10.60;;;3.08;;
52798;SDS011;38667;42.872;74.622;2023-07-02T12:04:58;3.83;;;2.42;;
52798;SDS011;38667;42.872;74.622;2023-07-02T12:07:24;8.00;;;2.22;;
52798;SDS011;38667;42.872;74.622;2023-07-02T12:09:51;5.50;;;2.63;;
52798;SDS011;38667;42.872;74.622;2023-07-02T12:12:17;6.68;;;3.00;;
52798;SDS011;38667;42.872;74.622;2023-07-02T12:14:44;8.13;;;3.10;;
52798;SDS011;38667;42.872;74.622;2023-07-02T12:17:10;8.65;;;3.40;;
52798;SDS011;38667;42.872;74.622;2023-07-02T12:19:36;5.68;;;2.80;;
52798;SDS011;38667;42.872;74.622;2023-07-02T12:22:04;4.38;;;2.50;;
52798;SDS011;38667;42.872;74.622;2023-07-02T12:24:31;9.63;;;2.70;;
52798;SDS011;38667;42.872;74.622;2023-07-02T12:26:58;5.78;;;3.17;;
52798;SDS011;38667;42.872;74.622;2023-07-02T12:29:24;5.40;;;3.30;;
52798;SDS011;38667;42.872;74.622;2023-07-02T12:31:50;6.10;;;3.28;;
52798;SDS011;38667;42.872;74.622;2023-07-02T12:34:17;14.20;;;9.63;;
52798;SDS011;38667;42.872;74.622;2023-07-02T12:36:43;7.45;;;3.58;;
52798;SDS011;38667;42.872;74.622;2023-07-02T12:39:11;9.48;;;5.80;;
52798;SDS011;38667;42.872;74.622;2023-07-02T12:41:37;7.85;;;3.55;;
52798;SDS011;38667;42.872;74.622;2023-07-02T12:44:04;6.68;;;3.58;;
52798;SDS011;38667;42.872;74.622;2023-07-02T12:46:30;6.70;;;2.83;;
52798;SDS011;38667;42.872;74.622;2023-07-02T12:48:56;5.88;;;3.08;;
52798;SDS011;38667;42.872;74.622;2023-07-02T12:51:23;4.32;;;2.88;;
52798;SDS011;38667;42.872;74.622;2023-07-02T12:53:49;4.60;;;2.75;;
52798;SDS011;38667;42.872;74.622;2023-07-02T12:56:17;4.85;;;3.13;;
52798;SDS011;38667;42.872;74.622;2023-07-02T12:58:43;4.70;;;3.00;;
52798;SDS011;38667;42.872;74.622;2023-07-02T13:01:10;5.85;;;3.13;;
52798;SDS011;38667;42.872;74.622;2023-07-02T13:03:36;8.35;;;3.10;;
52798;SDS011;38667;42.872;74.622;2023-07-02T13:06:02;3.88;;;2.92;;
52798;SDS011;38667;42.872;74.622;2023-07-02T13:08:29;5.70;;;2.90;;
52798;SDS011;38667;42.872;74.622;2023-07-02T13:10:55;6.82;;;3.13;;
52798;SDS011;38667;42.872;74.622;2023-07-02T13:13:23;7.35;;;3.60;;
52798;SDS011;38667;42.872;74.622;2023-07-02T13:15:49;4.50;;;3.53;;
52798;SDS011;38667;42.872;74.622;2023-07-02T13:18:16;6.03;;;3.38;;
52798;SDS011;38667;42.872;74.622;2023-07-02T13:20:42;6.65;;;3.38;;
52798;SDS011;38667;42.872;74.622;2023-07-02T13:23:08;6.65;;;3.20;;
52798;SDS011;38667;42.872;74.622;2023-07-02T13:25:35;7.15;;;3.33;;
52798;SDS011;38667;42.872;74.622;2023-07-02T13:28:01;5.43;;;3.50;;
52798;SDS011;38667;42.872;74.622;2023-07-02T13:30:29;5.75;;;3.50;;
52798;SDS011;38667;42.872;74.622;2023-07-02T13:32:56;9.80;;;4.10;;
52798;SDS011;38667;42.872;74.622;2023-07-02T13:35:24;16.05;;;3.80;;
52798;SDS011;38667;42.872;74.622;2023-07-02T13:37:50;7.53;;;3.78;;
52798;SDS011;38667;42.872;74.622;2023-07-02T13:40:17;8.95;;;3.90;;
52798;SDS011;38667;42.872;74.622;2023-07-02T13:42:43;12.55;;;5.53;;
52798;SDS011;38667;42.872;74.622;2023-07-02T13:45:10;9.85;;;4.85;;
52798;SDS011;38667;42.872;74.622;2023-07-02T13:47:38;10.38;;;6.13;;
52798;SDS011;38667;42.872;74.622;2023-07-02T13:50:05;6.70;;;4.38;;
52798;SDS011;38667;42.872;74.622;2023-07-02T13:52:32;10.35;;;4.45;;
52798;SDS011;38667;42.872;74.622;2023-07-02T13:54:58;8.80;;;4.60;;
52798;SDS011;38667;42.872;74.622;2023-07-02T13:57:24;7.72;;;4.45;;
52798;SDS011;38667;42.872;74.622;2023-07-02T13:59:52;6.78;;;3.63;;
52798;SDS011;38667;42.872;74.622;2023-07-02T14:02:18;7.68;;;4.20;;
52798;SDS011;38667;42.872;74.622;2023-07-02T14:04:45;4.15;;;3.22;;
52798;SDS011;38667;42.872;74.622;2023-07-02T14:07:11;8.13;;;3.65;;
52798;SDS011;38667;42.872;74.622;2023-07-02T14:09:37;13.32;;;4.15;;
52798;SDS011;38667;42.872;74.622;2023-07-02T14:12:07;8.30;;;4.50;;
52798;SDS011;38667;42.872;74.622;2023-07-02T14:14:33;13.02;;;4.00;;
52798;SDS011;38667;42.872;74.622;2023-07-02T14:17:01;8.88;;;4.03;;
52798;SDS011;38667;42.872;74.622;2023-07-02T14:19:28;11.48;;;5.22;;
52798;SDS011;38667;42.872;74.622;2023-07-02T14:21:54;16.00;;;7.75;;
52798;SDS011;38667;42.872;74.622;2023-07-02T14:24:21;14.38;;;5.68;;
52798;SDS011;38667;42.872;74.622;2023-07-02T14:26:47;14.70;;;6.25;;
52798;SDS011;38667;42.872;74.622;2023-07-02T14:29:13;14.30;;;5.95;;